Time;durP1;ratioP1;P1;durP2;ratioP2;P2;SDS_P1;SDS_P2;PMS_P1;PMS_P2;Temp;Humidity;BMP_temperature;BMP_pressure;BME280_temperature;BME280_humidity;BME280_pressure;Samples;Min_cycle;Max_cycle;Signal;HPM_P1;HPM_P2
2022/11/11 00:00:48;;;;;;;10.38;3.60;;;;;;;;;;5070712;28;20025;-75
2022/11/11 00:03:15;;;;;;;6.40;3.17;;;;;;;;;;5070872;28;20406;-77
2022/11/11 00:05:41;;;;;;;6.80;3.47;;;;;;;;;;5052575;28;20119;-76
2022/11/11 00:08:07;;;;;;;6.22;3.08;;;;;;;;;;5070133;28;20021;-76
2022/11/11 00:10:33;;;;;;;10.43;3.47;;;;;;;;;;5070734;28;20040;-71
2022/11/11 00:13:00;;;;;;;12.13;3.63;;;;;;;;;;5070833;28;20048;-75
2022/11/11 00:15:27;;;;;;;8.75;2.70;;;;;;;;;;5052570;28;20565;-75
2022/11/11 00:26:12;;;;;;;9.07;2.97;;;;;;;;;;5072265;28;20067;-77
2022/11/11 00:28:38;;;;;;;10.18;4.05;;;;;;;;;;5074489;28;20020;-75
2022/11/11 00:31:08;;;;;;;9.02;3.53;;;;;;;;;;5057300;28;20359;-75
2022/11/11 00:33:34;;;;;;;11.60;4.28;;;;;;;;;;5074857;28;20028;-75
2022/11/11 00:36:01;;;;;;;11.02;5.15;;;;;;;;;;5074827;28;20029;-75
2022/11/11 00:38:46;;;;;;;15.63;5.95;;;;;;;;;;5073822;28;20029;-75
2022/11/11 00:41:13;;;;;;;8.32;5.03;;;;;;;;;;5074855;28;20118;-76
2022/11/11 00:43:39;;;;;;;13.18;5.53;;;;;;;;;;5075141;28;20093;-75
2022/11/11 00:51:34;;;;;;;15.95;5.88;;;;;;;;;;5074542;28;20089;-75
2022/11/11 00:54:00;;;;;;;14.20;5.60;;;;;;;;;;5062156;28;20414;-75
2022/11/11 00:56:26;;;;;;;12.68;4.88;;;;;;;;;;5074331;28;20459;-75
2022/11/11 00:58:52;;;;;;;10.70;5.50;;;;;;;;;;5055113;28;20119;-76
2022/11/11 01:01:18;;;;;;;12.70;5.60;;;;;;;;;;5074009;28;20021;-74
2022/11/11 01:03:44;;;;;;;15.23;6.63;;;;;;;;;;5055902;28;20069;-75
2022/11/11 01:06:14;;;;;;;11.90;5.85;;;;;;;;;;5056090;28;20405;-76
2022/11/11 01:08:41;;;;;;;15.45;6.53;;;;;;;;;;5073061;28;20032;-75
2022/11/11 01:11:14;;;;;;;11.80;5.78;;;;;;;;;;5056039;28;20056;-75
2022/11/11 01:13:40;;;;;;;11.05;5.90;;;;;;;;;;5073874;28;20486;-76
2022/11/11 01:16:07;;;;;;;10.75;5.50;;;;;;;;;;5074098;28;20039;-76
2022/11/11 01:18:34;;;;;;;15.13;5.47;;;;;;;;;;5073114;28;20031;-75
2022/11/11 01:21:06;;;;;;;17.75;5.40;;;;;;;;;;5073806;28;20099;-76
2022/11/11 01:23:33;;;;;;;9.95;4.57;;;;;;;;;;5073801;28;20025;-76
2022/11/11 01:26:16;;;;;;;15.45;4.30;;;;;;;;;;5073464;28;20021;-76
2022/11/11 01:28:42;;;;;;;11.20;3.90;;;;;;;;;;5055000;28;20486;-75
2022/11/11 01:31:09;;;;;;;10.45;3.35;;;;;;;;;;5073594;28;20049;-76
2022/11/11 01:33:35;;;;;;;9.55;3.53;;;;;;;;;;5073472;28;20212;-76
2022/11/11 01:36:08;;;;;;;9.00;3.65;;;;;;;;;;5073342;28;20024;-76
2022/11/11 01:38:34;;;;;;;10.27;3.35;;;;;;;;;;5053514;28;20031;-75
2022/11/11 01:41:31;;;;;;;14.45;4.40;;;;;;;;;;5073872;28;20021;-74
2022/11/11 01:43:47;;;;;;;8.45;3.90;;;;;;;;;;5040812;28;20112;-75
2022/11/11 01:46:31;;;;;;;10.63;3.50;;;;;;;;;;5073549;28;20048;-75
2022/11/11 01:49:18;;;;;;;16.73;4.97;;;;;;;;;;5073037;28;20052;-75
2022/11/11 01:51:50;;;;;;;13.68;4.38;;;;;;;;;;5083187;28;20016;-80
2022/11/11 01:54:29;;;;;;;7.10;3.95;;;;;;;;;;5086650;28;20036;-80
2022/11/11 01:56:58;;;;;;;9.10;4.50;;;;;;;;;;5099014;28;20032;-80
2022/11/11 01:59:25;;;;;;;9.18;4.85;;;;;;;;;;5098277;28;20020;-80
2022/11/11 02:01:51;;;;;;;11.80;4.88;;;;;;;;;;5092648;28;20028;-75
2022/11/11 02:07:06;;;;;;;10.93;4.72;;;;;;;;;;5072670;28;20051;-73
2022/11/11 02:09:32;;;;;;;10.10;5.60;;;;;;;;;;5071036;28;20082;-75
2022/11/11 02:14:47;;;;;;;11.50;5.65;;;;;;;;;;5061325;28;20044;-75
2022/11/11 02:17:13;;;;;;;12.57;6.03;;;;;;;;;;5054112;28;20032;-75
2022/11/11 02:19:52;;;;;;;12.32;5.15;;;;;;;;;;5055919;28;20029;-76
2022/11/11 02:22:23;;;;;;;8.32;5.18;;;;;;;;;;5065179;28;20092;-75
2022/11/11 02:24:49;;;;;;;11.55;5.70;;;;;;;;;;5064742;28;20034;-75
2022/11/11 02:27:16;;;;;;;16.13;6.00;;;;;;;;;;5050691;28;20452;-75
2022/11/11 02:29:43;;;;;;;11.98;5.13;;;;;;;;;;5068735;28;20040;-74
2022/11/11 02:32:09;;;;;;;7.95;4.85;;;;;;;;;;5054604;28;20055;-74
2022/11/11 02:34:35;;;;;;;13.88;4.80;;;;;;;;;;5061868;28;20467;-74
2022/11/11 02:37:02;;;;;;;12.95;5.50;;;;;;;;;;5065823;28;20033;-74
2022/11/11 02:39:29;;;;;;;11.90;4.43;;;;;;;;;;5055650;28;20040;-74
2022/11/11 02:41:58;;;;;;;12.38;4.20;;;;;;;;;;5051080;28;20017;-75
2022/11/11 02:44:25;;;;;;;11.75;4.15;;;;;;;;;;5060915;28;20094;-75
2022/11/11 02:46:51;;;;;;;15.05;4.97;;;;;;;;;;5059770;28;20032;-74
2022/11/11 02:49:18;;;;;;;12.30;5.13;;;;;;;;;;5067539;28;20021;-74
2022/11/11 02:51:44;;;;;;;9.65;4.88;;;;;;;;;;5055289;28;20040;-74
2022/11/11 02:54:10;;;;;;;9.10;5.15;;;;;;;;;;5060016;28;20055;-74
2022/11/11 02:59:23;;;;;;;12.27;5.63;;;;;;;;;;5064222;28;20043;-74
2022/11/11 03:01:49;;;;;;;12.40;5.95;;;;;;;;;;5037533;28;20016;-74
2022/11/11 03:04:15;;;;;;;12.02;5.68;;;;;;;;;;5064726;28;20481;-76
2022/11/11 03:06:41;;;;;;;10.05;5.30;;;;;;;;;;5061107;28;20024;-76
2022/11/11 03:09:07;;;;;;;12.00;5.88;;;;;;;;;;5065437;28;20032;-77
2022/11/11 03:11:37;;;;;;;10.25;5.55;;;;;;;;;;5071494;28;20036;-70
2022/11/11 03:14:03;;;;;;;15.07;5.68;;;;;;;;;;5071372;28;20036;-74
2022/11/11 03:19:14;;;;;;;9.70;5.47;;;;;;;;;;5071055;28;20082;-74
2022/11/11 03:21:41;;;;;;;12.45;5.25;;;;;;;;;;5071509;28;20454;-74
2022/11/11 03:24:07;;;;;;;11.60;5.85;;;;;;;;;;5071169;28;20494;-74
2022/11/11 03:26:33;;;;;;;14.02;5.30;;;;;;;;;;5071363;28;20051;-74
2022/11/11 03:28:59;;;;;;;13.35;5.43;;;;;;;;;;5070332;28;20020;-76
2022/11/11 03:31:25;;;;;;;12.82;5.13;;;;;;;;;;5071275;28;20494;-74
2022/11/11 03:33:51;;;;;;;12.50;4.50;;;;;;;;;;5071514;28;20063;-75
2022/11/11 03:36:17;;;;;;;8.80;5.00;;;;;;;;;;5071260;28;20406;-74
2022/11/11 03:38:43;;;;;;;9.02;4.20;;;;;;;;;;5070254;28;20032;-74
2022/11/11 03:41:09;;;;;;;9.43;4.82;;;;;;;;;;5071323;28;20039;-75
2022/11/11 03:43:35;;;;;;;15.68;5.63;;;;;;;;;;5070934;28;20032;-75
2022/11/11 03:46:01;;;;;;;14.68;6.05;;;;;;;;;;5071025;28;20043;-76
2022/11/11 03:48:29;;;;;;;12.10;6.10;;;;;;;;;;5070603;28;20051;-76
2022/11/11 03:50:55;;;;;;;15.13;7.00;;;;;;;;;;5070933;28;20032;-75
2022/11/11 03:53:21;;;;;;;15.82;7.18;;;;;;;;;;5058688;28;20025;-76
2022/11/11 03:55:48;;;;;;;15.48;7.47;;;;;;;;;;5070647;28;20070;-74
2022/11/11 03:58:14;;;;;;;14.43;7.63;;;;;;;;;;5071082;28;20601;-74
2022/11/11 04:00:40;;;;;;;17.92;8.05;;;;;;;;;;5070682;28;20024;-75
2022/11/11 04:11:25;;;;;;;17.05;7.72;;;;;;;;;;5054658;28;20090;-74
2022/11/11 04:16:36;;;;;;;13.70;7.57;;;;;;;;;;5061269;28;20043;-74
2022/11/11 04:22:00;;;;;;;16.17;7.35;;;;;;;;;;5029941;28;20020;-74
2022/11/11 04:27:12;;;;;;;15.18;7.38;;;;;;;;;;5066685;28;20509;-75
2022/11/11 04:29:39;;;;;;;13.50;7.05;;;;;;;;;;5052710;28;20040;-76
2022/11/11 04:34:52;;;;;;;15.50;7.05;;;;;;;;;;5058439;28;20071;-75
2022/11/11 04:37:18;;;;;;;13.32;6.55;;;;;;;;;;5065788;28;20078;-74
2022/11/11 04:42:30;;;;;;;15.27;6.55;;;;;;;;;;5059995;28;20082;-75
2022/11/11 04:48:00;;;;;;;14.27;7.07;;;;;;;;;;5065775;28;20094;-77
2022/11/11 04:50:28;;;;;;;10.20;6.35;;;;;;;;;;5052360;28;20035;-75
2022/11/11 04:52:54;;;;;;;16.73;7.03;;;;;;;;;;5057324;28;20020;-75
2022/11/11 04:58:04;;;;;;;12.40;5.60;;;;;;;;;;5055092;28;20090;-75
2022/11/11 05:00:31;;;;;;;14.52;5.38;;;;;;;;;;5060302;28;20438;-75
2022/11/11 05:03:15;;;;;;;14.90;6.30;;;;;;;;;;5063450;28;20067;-76
2022/11/11 05:11:11;;;;;;;18.27;7.18;;;;;;;;;;5070273;28;20446;-74
2022/11/11 05:22:04;;;;;;;11.57;6.30;;;;;;;;;;5040772;28;20040;-76
2022/11/11 05:27:15;;;;;;;12.95;7.30;;;;;;;;;;5076419;28;20036;-75
2022/11/11 05:29:41;;;;;;;12.65;6.20;;;;;;;;;;5076695;28;20406;-76
2022/11/11 05:32:08;;;;;;;11.38;5.75;;;;;;;;;;5075047;28;20021;-76
2022/11/11 05:34:34;;;;;;;13.10;7.05;;;;;;;;;;5073636;28;20033;-76
2022/11/11 05:37:00;;;;;;;14.18;7.32;;;;;;;;;;5049324;28;20036;-75
2022/11/11 05:39:26;;;;;;;16.13;7.97;;;;;;;;;;5067499;28;20401;-75
2022/11/11 05:41:52;;;;;;;13.68;7.72;;;;;;;;;;5054979;28;20016;-75
2022/11/11 05:44:18;;;;;;;14.50;8.00;;;;;;;;;;5073475;28;20107;-76
2022/11/11 05:46:44;;;;;;;12.88;6.50;;;;;;;;;;5072501;28;20439;-76
2022/11/11 05:49:16;;;;;;;12.65;7.40;;;;;;;;;;5072544;28;20112;-75
2022/11/11 05:51:42;;;;;;;13.73;7.72;;;;;;;;;;5073129;28;20029;-76
2022/11/11 05:54:08;;;;;;;14.10;8.52;;;;;;;;;;5060479;28;20029;-75
2022/11/11 05:56:34;;;;;;;13.35;7.07;;;;;;;;;;5054291;28;20494;-76
2022/11/11 05:59:00;;;;;;;14.55;7.72;;;;;;;;;;5071933;28;20467;-75
2022/11/11 06:01:26;;;;;;;17.85;7.93;;;;;;;;;;5073057;28;20027;-75
2022/11/11 06:03:52;;;;;;;11.85;7.05;;;;;;;;;;5072756;28;20020;-75
2022/11/11 06:06:18;;;;;;;17.15;7.70;;;;;;;;;;5054856;28;20401;-75
2022/11/11 06:08:45;;;;;;;13.40;7.18;;;;;;;;;;5058709;28;20031;-74
2022/11/11 06:11:11;;;;;;;13.40;6.90;;;;;;;;;;5067733;28;20062;-74
2022/11/11 06:13:37;;;;;;;15.77;6.50;;;;;;;;;;5055920;28;20029;-76
2022/11/11 06:16:03;;;;;;;13.80;7.10;;;;;;;;;;5066841;28;20041;-75
2022/11/11 06:18:29;;;;;;;18.30;7.28;;;;;;;;;;5060206;28;20038;-75
2022/11/11 06:20:56;;;;;;;13.27;7.10;;;;;;;;;;5059618;28;20111;-76
2022/11/11 06:23:22;;;;;;;15.90;7.70;;;;;;;;;;5068515;28;20027;-75
2022/11/11 06:28:33;;;;;;;16.02;6.63;;;;;;;;;;5061732;28;20100;-75
2022/11/11 06:30:59;;;;;;;13.20;5.53;;;;;;;;;;5065805;28;20032;-73
2022/11/11 06:33:25;;;;;;;15.77;6.07;;;;;;;;;;5054910;28;20458;-75
2022/11/11 06:35:51;;;;;;;14.48;6.45;;;;;;;;;;5053480;28;20025;-74
2022/11/11 06:38:17;;;;;;;13.80;6.43;;;;;;;;;;5055168;28;20024;-74
2022/11/11 06:40:43;;;;;;;11.73;5.88;;;;;;;;;;5035826;28;20025;-74
2022/11/11 06:43:10;;;;;;;12.52;5.13;;;;;;;;;;5062336;28;20095;-76
2022/11/11 06:45:36;;;;;;;11.48;5.40;;;;;;;;;;5055322;28;20029;-75
2022/11/11 06:48:03;;;;;;;7.35;4.72;;;;;;;;;;5053168;28;20037;-75
2022/11/11 06:50:31;;;;;;;7.72;4.35;;;;;;;;;;5039980;28;20124;-75
2022/11/11 06:53:03;;;;;;;14.18;4.65;;;;;;;;;;5049277;28;20037;-75
2022/11/11 06:55:29;;;;;;;13.77;4.97;;;;;;;;;;5051955;28;20021;-75
2022/11/11 06:57:55;;;;;;;9.27;4.40;;;;;;;;;;5050891;28;20395;-74
2022/11/11 07:00:21;;;;;;;12.10;4.78;;;;;;;;;;5052442;28;20036;-74
2022/11/11 07:02:54;;;;;;;13.35;5.32;;;;;;;;;;5053533;28;20048;-71
2022/11/11 07:05:20;;;;;;;9.30;5.60;;;;;;;;;;5051498;28;20036;-71
2022/11/11 07:07:46;;;;;;;10.85;5.25;;;;;;;;;;5030162;28;20420;-74
2022/11/11 07:10:13;;;;;;;14.98;5.72;;;;;;;;;;5030982;28;20131;-72
2022/11/11 07:12:40;;;;;;;12.98;5.50;;;;;;;;;;5051699;28;20025;-71
2022/11/11 07:15:07;;;;;;;20.30;6.28;;;;;;;;;;5051638;28;20017;-72
2022/11/11 07:17:33;;;;;;;18.42;6.30;;;;;;;;;;5067537;28;20137;-73
2022/11/11 07:19:59;;;;;;;15.63;6.35;;;;;;;;;;5056716;28;20073;-71
2022/11/11 07:22:24;;;;;;;12.55;6.35;;;;;;;;;;5063181;28;20228;-72
2022/11/11 07:24:50;;;;;;;11.85;6.55;;;;;;;;;;5052875;28;20056;-74
2022/11/11 07:27:16;;;;;;;12.73;6.57;;;;;;;;;;5058872;28;20029;-74
2022/11/11 07:29:42;;;;;;;11.40;6.63;;;;;;;;;;5048417;28;20075;-72
2022/11/11 07:32:09;;;;;;;7.40;5.25;;;;;;;;;;5051591;28;20022;-72
2022/11/11 07:34:35;;;;;;;12.60;5.90;;;;;;;;;;5061363;28;20024;-72
2022/11/11 07:37:01;;;;;;;18.80;6.82;;;;;;;;;;5055694;28;20056;-71
2022/11/11 07:39:27;;;;;;;7.70;5.25;;;;;;;;;;5066819;28;20430;-72
2022/11/11 07:41:52;;;;;;;11.20;5.80;;;;;;;;;;5054957;28;20047;-73
2022/11/11 07:44:18;;;;;;;11.65;6.25;;;;;;;;;;5063119;28;20025;-75
2022/11/11 07:46:44;;;;;;;12.38;5.75;;;;;;;;;;5049154;28;20115;-76
2022/11/11 07:49:10;;;;;;;10.93;5.70;;;;;;;;;;5047951;28;20025;-75
2022/11/11 07:51:37;;;;;;;8.40;5.65;;;;;;;;;;5051305;28;20479;-76
2022/11/11 07:54:03;;;;;;;10.25;6.03;;;;;;;;;;5051084;28;20033;-74
2022/11/11 07:56:29;;;;;;;18.50;6.30;;;;;;;;;;5049121;28;20060;-71
2022/11/11 07:58:55;;;;;;;10.60;6.43;;;;;;;;;;5050142;28;20067;-74
2022/11/11 08:01:21;;;;;;;10.32;5.57;;;;;;;;;;5050843;28;20017;-75
2022/11/11 08:03:50;;;;;;;10.75;5.57;;;;;;;;;;5042771;28;20055;-77
2022/11/11 08:06:17;;;;;;;10.35;5.55;;;;;;;;;;5033438;28;20432;-76
2022/11/11 08:08:43;;;;;;;8.52;5.45;;;;;;;;;;5027444;28;20495;-77
2022/11/11 08:11:09;;;;;;;12.70;5.63;;;;;;;;;;5028503;28;20079;-78
2022/11/11 08:13:42;;;;;;;10.02;5.28;;;;;;;;;;5028992;28;20104;-78
2022/11/11 08:16:08;;;;;;;9.90;5.28;;;;;;;;;;5033382;28;20029;-76
2022/11/11 08:18:35;;;;;;;7.72;5.25;;;;;;;;;;5021697;28;20029;-77
2022/11/11 08:21:01;;;;;;;14.38;5.88;;;;;;;;;;5042521;28;20032;-77
2022/11/11 08:23:34;;;;;;;10.98;5.72;;;;;;;;;;5022822;28;20052;-78
2022/11/11 08:26:00;;;;;;;9.55;5.88;;;;;;;;;;5031943;28;20048;-74
2022/11/11 08:28:27;;;;;;;14.30;6.20;;;;;;;;;;5030149;28;20032;-77
2022/11/11 08:30:53;;;;;;;9.48;5.80;;;;;;;;;;5031131;28;20106;-76
2022/11/11 08:33:19;;;;;;;13.13;5.97;;;;;;;;;;5013233;28;20021;-76
2022/11/11 08:35:45;;;;;;;10.57;5.38;;;;;;;;;;5031082;28;20095;-76
2022/11/11 08:38:12;;;;;;;9.43;5.13;;;;;;;;;;5030277;28;20596;-77
2022/11/11 08:40:38;;;;;;;11.18;5.20;;;;;;;;;;5030950;28;20456;-77
2022/11/11 08:43:04;;;;;;;9.35;5.00;;;;;;;;;;5031172;28;20097;-78
2022/11/11 08:45:30;;;;;;;13.90;6.30;;;;;;;;;;5031354;28;20029;-76
2022/11/11 08:47:56;;;;;;;9.90;5.82;;;;;;;;;;5032376;28;20037;-76
2022/11/11 08:50:22;;;;;;;18.15;6.57;;;;;;;;;;5034998;28;20091;-78
2022/11/11 08:52:49;;;;;;;13.75;5.30;;;;;;;;;;5035123;28;20029;-78
2022/11/11 08:55:15;;;;;;;12.98;6.30;;;;;;;;;;5034999;28;20036;-76
2022/11/11 08:57:41;;;;;;;10.55;5.78;;;;;;;;;;5033967;28;20052;-76
2022/11/11 09:00:07;;;;;;;13.68;6.60;;;;;;;;;;5016889;28;20452;-76
2022/11/11 09:02:33;;;;;;;13.57;6.07;;;;;;;;;;5017203;28;20391;-79
2022/11/11 09:04:59;;;;;;;8.52;5.60;;;;;;;;;;5016833;28;20021;-76
2022/11/11 09:07:26;;;;;;;8.23;5.65;;;;;;;;;;5033969;28;20025;-75
2022/11/11 09:09:52;;;;;;;10.77;5.88;;;;;;;;;;5034089;28;20034;-76
2022/11/11 09:12:18;;;;;;;15.88;6.55;;;;;;;;;;5034257;28;20079;-75
2022/11/11 09:14:44;;;;;;;11.02;5.47;;;;;;;;;;5034652;28;20108;-76
2022/11/11 09:17:10;;;;;;;12.13;6.03;;;;;;;;;;5016965;28;20212;-75
2022/11/11 09:19:36;;;;;;;10.18;5.80;;;;;;;;;;5034064;28;20116;-76
2022/11/11 09:22:02;;;;;;;11.75;6.35;;;;;;;;;;5016196;28;20022;-75
2022/11/11 09:24:28;;;;;;;10.32;5.80;;;;;;;;;;5034618;28;20395;-77
2022/11/11 09:26:54;;;;;;;11.82;5.25;;;;;;;;;;5033890;28;20108;-76
2022/11/11 09:29:20;;;;;;;9.38;5.57;;;;;;;;;;5033867;28;20030;-77
2022/11/11 09:31:46;;;;;;;15.25;6.43;;;;;;;;;;5034253;28;20045;-79
2022/11/11 09:34:12;;;;;;;9.48;5.93;;;;;;;;;;5034048;28;20036;-77
2022/11/11 09:36:38;;;;;;;11.35;5.13;;;;;;;;;;5033699;28;20522;-76
2022/11/11 09:39:04;;;;;;;14.15;6.28;;;;;;;;;;5033163;28;20136;-78
2022/11/11 09:41:33;;;;;;;11.48;5.13;;;;;;;;;;5034163;28;20100;-77
2022/11/11 09:44:00;;;;;;;11.68;5.38;;;;;;;;;;5034134;28;20021;-75
2022/11/11 09:46:26;;;;;;;8.68;4.88;;;;;;;;;;5033971;28;20497;-76
2022/11/11 09:49:07;;;;;;;13.27;5.82;;;;;;;;;;5033267;28;20147;-75
2022/11/11 09:51:41;;;;;;;12.80;5.55;;;;;;;;;;5033803;28;20164;-75
2022/11/11 09:54:08;;;;;;;8.27;5.40;;;;;;;;;;5033634;28;20076;-76
2022/11/11 09:56:34;;;;;;;16.02;5.88;;;;;;;;;;5033568;28;20111;-72
2022/11/11 09:59:15;;;;;;;13.68;5.93;;;;;;;;;;5032035;28;20028;-75
2022/11/11 10:01:51;;;;;;;10.48;5.70;;;;;;;;;;5033477;28;20132;-77
2022/11/11 10:04:32;;;;;;;8.68;5.70;;;;;;;;;;5033273;28;20022;-76
2022/11/11 10:07:22;;;;;;;13.88;6.38;;;;;;;;;;5015344;28;20479;-73
2022/11/11 10:09:59;;;;;;;11.35;5.90;;;;;;;;;;5028545;28;20042;-76
2022/11/11 10:12:27;;;;;;;12.52;7.82;;;;;;;;;;5033369;28;20125;-77
2022/11/11 10:14:54;;;;;;;20.15;8.23;;;;;;;;;;5033316;28;20036;-78
2022/11/11 10:17:23;;;;;;;14.15;7.68;;;;;;;;;;5032805;28;20036;-77
2022/11/11 10:19:49;;;;;;;21.38;8.85;;;;;;;;;;5032998;28;20056;-75
2022/11/11 10:22:20;;;;;;;14.15;8.27;;;;;;;;;;5033398;28;20324;-76
2022/11/11 10:24:52;;;;;;;15.35;8.85;;;;;;;;;;5015668;28;20455;-77
2022/11/11 10:27:19;;;;;;;16.33;8.15;;;;;;;;;;5032674;28;20025;-76
2022/11/11 10:29:46;;;;;;;16.48;8.27;;;;;;;;;;5033137;28;20399;-76
2022/11/11 10:32:16;;;;;;;19.10;8.68;;;;;;;;;;5033376;28;20032;-79
2022/11/11 10:34:45;;;;;;;13.10;7.70;;;;;;;;;;5042315;28;20021;-75
2022/11/11 10:37:17;;;;;;;25.58;7.63;;;;;;;;;;5052903;28;20104;-75
2022/11/11 10:40:02;;;;;;;15.20;7.38;;;;;;;;;;5051569;28;20070;-78
2022/11/11 10:42:28;;;;;;;13.80;7.45;;;;;;;;;;5045270;28;20021;-77
2022/11/11 10:44:58;;;;;;;14.52;7.57;;;;;;;;;;5041304;28;20021;-77
2022/11/11 10:47:45;;;;;;;13.88;7.13;;;;;;;;;;5014311;28;20017;-76
2022/11/11 10:50:31;;;;;;;13.20;8.02;;;;;;;;;;5031663;28;20029;-77
2022/11/11 10:53:05;;;;;;;18.17;8.13;;;;;;;;;;5030284;28;20330;-78
2022/11/11 10:55:35;;;;;;;14.88;7.68;;;;;;;;;;5043699;28;20068;-74
2022/11/11 10:58:10;;;;;;;19.25;7.30;;;;;;;;;;5049885;28;20300;-75
2022/11/11 11:00:37;;;;;;;14.63;7.97;;;;;;;;;;5049996;28;20029;-77
2022/11/11 11:03:21;;;;;;;16.17;7.60;;;;;;;;;;5050957;28;20234;-76
2022/11/11 11:05:50;;;;;;;15.77;8.05;;;;;;;;;;5051922;28;20060;-76
2022/11/11 11:08:19;;;;;;;12.88;7.30;;;;;;;;;;5051681;28;20053;-76
2022/11/11 11:10:57;;;;;;;14.57;7.32;;;;;;;;;;5052992;28;20029;-76
2022/11/11 11:13:41;;;;;;;16.13;7.85;;;;;;;;;;5052543;28;20024;-76
2022/11/11 11:16:14;;;;;;;16.58;6.63;;;;;;;;;;5052012;28;20045;-76
2022/11/11 11:18:40;;;;;;;14.27;7.35;;;;;;;;;;5051308;28;20087;-76
2022/11/11 11:21:08;;;;;;;16.08;7.10;;;;;;;;;;5051811;28;20017;-77
2022/11/11 11:23:36;;;;;;;14.65;7.40;;;;;;;;;;5052103;28;20020;-78
2022/11/11 11:26:03;;;;;;;14.98;8.65;;;;;;;;;;5052274;28;20211;-76
2022/11/11 11:28:29;;;;;;;10.63;6.13;;;;;;;;;;5051165;28;20021;-76
2022/11/11 11:31:00;;;;;;;18.52;7.35;;;;;;;;;;5051882;28;20028;-76
2022/11/11 11:33:26;;;;;;;12.30;7.05;;;;;;;;;;5051553;28;20019;-80
2022/11/11 11:35:52;;;;;;;13.63;7.63;;;;;;;;;;5051298;28;20025;-75
2022/11/11 11:38:18;;;;;;;17.52;7.80;;;;;;;;;;5050529;28;20036;-74
2022/11/11 11:40:49;;;;;;;15.45;8.27;;;;;;;;;;5033728;28;20021;-75
2022/11/11 11:43:33;;;;;;;15.65;7.95;;;;;;;;;;5051474;28;20025;-76
2022/11/11 11:46:00;;;;;;;12.38;7.63;;;;;;;;;;5051438;28;20087;-77
2022/11/11 11:48:26;;;;;;;17.20;7.70;;;;;;;;;;5050387;28;20017;-76
2022/11/11 11:50:53;;;;;;;17.38;8.35;;;;;;;;;;5051535;28;20449;-75
2022/11/11 11:53:22;;;;;;;14.65;7.60;;;;;;;;;;5051473;28;20024;-77
2022/11/11 11:55:56;;;;;;;14.82;7.75;;;;;;;;;;5051681;28;20028;-77
2022/11/11 11:58:41;;;;;;;13.07;8.18;;;;;;;;;;5050451;28;20048;-76
2022/11/11 12:01:10;;;;;;;16.77;7.97;;;;;;;;;;5051358;28;20100;-77
2022/11/11 12:03:39;;;;;;;14.55;8.10;;;;;;;;;;5051209;28;20108;-80
2022/11/11 12:06:14;;;;;;;15.15;7.55;;;;;;;;;;5051384;28;20021;-77
2022/11/11 12:08:54;;;;;;;15.93;7.90;;;;;;;;;;5050584;28;20109;-78
2022/11/11 12:11:20;;;;;;;11.13;6.80;;;;;;;;;;5051232;28;20112;-76
2022/11/11 12:13:49;;;;;;;12.70;7.20;;;;;;;;;;5051482;28;20043;-75
2022/11/11 12:16:21;;;;;;;12.95;7.10;;;;;;;;;;5051337;28;20048;-75
2022/11/11 12:18:50;;;;;;;14.63;6.57;;;;;;;;;;5050645;28;20028;-77
2022/11/11 12:21:17;;;;;;;17.10;6.80;;;;;;;;;;5050842;28;20024;-76
2022/11/11 12:23:48;;;;;;;11.52;6.25;;;;;;;;;;5050979;28;20033;-75
2022/11/11 12:26:36;;;;;;;15.70;7.07;;;;;;;;;;5050942;28;20483;-78
2022/11/11 12:29:02;;;;;;;12.75;6.60;;;;;;;;;;5050495;28;20040;-75
2022/11/11 12:31:34;;;;;;;10.73;6.15;;;;;;;;;;5052408;28;20021;-74
2022/11/11 12:34:21;;;;;;;14.02;7.53;;;;;;;;;;5050831;28;20102;-74
2022/11/11 12:36:47;;;;;;;10.60;6.10;;;;;;;;;;5050774;28;20490;-75
2022/11/11 12:39:32;;;;;;;15.60;7.00;;;;;;;;;;5049842;28;20083;-75
2022/11/11 12:42:13;;;;;;;14.73;7.03;;;;;;;;;;5050711;28;20026;-75
2022/11/11 12:44:55;;;;;;;9.65;6.57;;;;;;;;;;5050712;28;20025;-75
2022/11/11 12:47:50;;;;;;;10.70;6.97;;;;;;;;;;5050002;28;20228;-74
2022/11/11 12:50:20;;;;;;;10.43;6.68;;;;;;;;;;4979468;28;20118;-74
2022/11/11 12:52:54;;;;;;;10.90;5.95;;;;;;;;;;5032839;28;20025;-75
2022/11/11 12:55:20;;;;;;;10.98;6.82;;;;;;;;;;5050790;28;20031;-74
2022/11/11 12:57:58;;;;;;;13.02;6.80;;;;;;;;;;5049896;28;20087;-74
2022/11/11 13:00:25;;;;;;;16.50;7.65;;;;;;;;;;5050554;28;20112;-75
2022/11/11 13:02:54;;;;;;;13.40;6.90;;;;;;;;;;5032954;28;20395;-73
2022/11/11 13:05:30;;;;;;;11.35;6.75;;;;;;;;;;5051370;28;20371;-74
2022/11/11 13:08:15;;;;;;;12.77;7.25;;;;;;;;;;5049877;28;20056;-76
2022/11/11 13:10:44;;;;;;;10.25;7.00;;;;;;;;;;5050776;28;20036;-75
2022/11/11 13:13:27;;;;;;;10.60;6.45;;;;;;;;;;5050225;28;20033;-75
2022/11/11 13:15:54;;;;;;;13.68;7.43;;;;;;;;;;5050076;28;20483;-75
2022/11/11 13:18:24;;;;;;;16.05;7.38;;;;;;;;;;5049435;28;20479;-75
2022/11/11 13:20:55;;;;;;;22.83;8.57;;;;;;;;;;5050779;28;20325;-75
2022/11/11 13:23:21;;;;;;;13.77;6.75;;;;;;;;;;5050715;28;20017;-75
2022/11/11 13:25:49;;;;;;;11.93;7.40;;;;;;;;;;5050354;28;20026;-74
2022/11/11 13:28:19;;;;;;;17.48;7.95;;;;;;;;;;5049586;28;20415;-75
2022/11/11 13:31:05;;;;;;;14.15;8.27;;;;;;;;;;5050008;28;20516;-75
2022/11/11 13:33:40;;;;;;;17.23;8.90;;;;;;;;;;5032288;28;20025;-76
2022/11/11 13:36:08;;;;;;;20.23;8.50;;;;;;;;;;5036110;28;20052;-74
2022/11/11 13:38:39;;;;;;;16.92;8.85;;;;;;;;;;5052929;28;20029;-74
2022/11/11 13:41:06;;;;;;;18.65;8.75;;;;;;;;;;5053930;28;20079;-75
2022/11/11 13:43:40;;;;;;;16.58;9.23;;;;;;;;;;5053932;28;20557;-74
2022/11/11 13:46:11;;;;;;;16.60;8.57;;;;;;;;;;5053848;28;20028;-74
2022/11/11 13:48:48;;;;;;;14.63;8.45;;;;;;;;;;5053227;28;20280;-75
2022/11/11 13:51:25;;;;;;;12.75;7.97;;;;;;;;;;5035470;28;20021;-74
2022/11/11 13:53:51;;;;;;;16.63;8.75;;;;;;;;;;5053559;28;20046;-72
2022/11/11 13:56:23;;;;;;;20.27;8.98;;;;;;;;;;5053124;28;20113;-74
2022/11/11 13:58:49;;;;;;;16.13;8.77;;;;;;;;;;5052373;28;20028;-74
2022/11/11 14:01:16;;;;;;;14.82;8.15;;;;;;;;;;5053198;28;20048;-74
2022/11/11 14:03:45;;;;;;;15.65;8.77;;;;;;;;;;5052886;28;20021;-74
2022/11/11 14:06:13;;;;;;;17.17;8.68;;;;;;;;;;5052872;28;20135;-75
2022/11/11 14:08:46;;;;;;;14.60;7.82;;;;;;;;;;5052252;28;20033;-75
2022/11/11 14:11:24;;;;;;;14.75;9.15;;;;;;;;;;5053042;28;20565;-71
2022/11/11 14:13:50;;;;;;;14.73;8.82;;;;;;;;;;5053085;28;20025;-75
2022/11/11 14:16:34;;;;;;;16.48;9.98;;;;;;;;;;5053171;28;20101;-75
2022/11/11 14:19:16;;;;;;;17.65;9.27;;;;;;;;;;5052547;28;20273;-74
2022/11/11 14:21:49;;;;;;;20.30;9.63;;;;;;;;;;5053044;28;20021;-75
2022/11/11 14:24:35;;;;;;;18.25;10.35;;;;;;;;;;5053763;28;20071;-76
2022/11/11 14:27:10;;;;;;;15.70;9.25;;;;;;;;;;5052596;28;20021;-73
2022/11/11 14:29:47;;;;;;;15.23;9.75;;;;;;;;;;5053103;28;20031;-76
2022/11/11 14:32:13;;;;;;;22.80;10.50;;;;;;;;;;5052282;28;20033;-76
2022/11/11 14:34:58;;;;;;;14.65;9.35;;;;;;;;;;5052802;28;20043;-76
2022/11/11 14:37:27;;;;;;;15.57;9.90;;;;;;;;;;5052276;28;20033;-74
2022/11/11 14:39:54;;;;;;;17.38;10.70;;;;;;;;;;5052027;28;20078;-75
2022/11/11 14:42:40;;;;;;;16.70;10.52;;;;;;;;;;5052287;28;20085;-75
2022/11/11 14:45:25;;;;;;;20.05;10.32;;;;;;;;;;5053912;28;20021;-75
2022/11/11 14:47:51;;;;;;;17.13;9.57;;;;;;;;;;5054344;28;20028;-74
2022/11/11 14:50:33;;;;;;;15.45;9.73;;;;;;;;;;5058068;28;20044;-74
2022/11/11 14:53:01;;;;;;;18.17;10.82;;;;;;;;;;5055732;28;20029;-74
2022/11/11 14:55:29;;;;;;;16.88;10.90;;;;;;;;;;5054944;28;20029;-74
2022/11/11 14:57:55;;;;;;;24.75;13.07;;;;;;;;;;5053748;28;20081;-76
2022/11/11 15:00:22;;;;;;;25.50;14.90;;;;;;;;;;5050639;28;20521;-75
2022/11/11 15:02:58;;;;;;;84.32;39.72;;;;;;;;;;5050620;28;20090;-75
2022/11/11 15:05:30;;;;;;;31.45;18.92;;;;;;;;;;5050919;28;20025;-76
2022/11/11 15:08:04;;;;;;;20.30;11.35;;;;;;;;;;5050989;28;20021;-76
2022/11/11 15:10:33;;;;;;;17.90;11.45;;;;;;;;;;5052312;28;20111;-74
2022/11/11 15:13:12;;;;;;;35.15;19.77;;;;;;;;;;5052593;28;20027;-76
2022/11/11 15:15:41;;;;;;;20.40;13.82;;;;;;;;;;5052886;28;20036;-75
2022/11/11 15:18:13;;;;;;;20.65;11.68;;;;;;;;;;5052397;28;20086;-77
2022/11/11 15:20:48;;;;;;;23.17;13.50;;;;;;;;;;5053472;28;20040;-75
2022/11/11 15:23:27;;;;;;;20.73;11.93;;;;;;;;;;5053165;28;20120;-76
2022/11/11 15:26:04;;;;;;;25.48;12.68;;;;;;;;;;5053134;28;20029;-75
2022/11/11 15:28:30;;;;;;;20.58;12.80;;;;;;;;;;5051254;28;20071;-75
2022/11/11 15:31:02;;;;;;;21.17;12.05;;;;;;;;;;5051834;28;20025;-75
2022/11/11 15:33:39;;;;;;;19.40;11.90;;;;;;;;;;5051903;28;20017;-76
2022/11/11 15:36:05;;;;;;;21.35;12.35;;;;;;;;;;5051787;28;20043;-74
2022/11/11 15:38:31;;;;;;;20.88;11.70;;;;;;;;;;5032779;28;20021;-75
2022/11/11 15:40:59;;;;;;;23.98;12.82;;;;;;;;;;5051750;28;20463;-75
2022/11/11 15:43:29;;;;;;;22.85;12.77;;;;;;;;;;5033947;28;20479;-76
2022/11/11 15:45:57;;;;;;;24.13;12.65;;;;;;;;;;5052120;28;20057;-77
2022/11/11 15:48:25;;;;;;;25.63;13.23;;;;;;;;;;5051726;28;20028;-76
2022/11/11 15:50:51;;;;;;;19.83;12.27;;;;;;;;;;5060410;28;20033;-75
2022/11/11 15:53:22;;;;;;;25.50;13.25;;;;;;;;;;5064766;28;20060;-75
2022/11/11 15:55:52;;;;;;;22.95;13.82;;;;;;;;;;5054807;28;20036;-74